Time;durP1;ratioP1;P1;durP2;ratioP2;P2;SDS_P1;SDS_P2;PMS_P1;PMS_P2;Temp;Humidity;BMP_temperature;BMP_pressure;BME280_temperature;BME280_humidity;BME280_pressure;Samples;Min_cycle;Max_cycle;Signal;HPM_P1;HPM_P2
2021/10/30 00:01:04;;;;;;;3.40;1.70;;;4.90;99.90;;;;;;5156426;27;20033;-66
2021/10/30 00:03:29;;;;;;;4.15;2.30;;;4.90;99.90;;;;;;5156359;27;20021;-66
2021/10/30 00:05:55;;;;;;;3.45;1.67;;;4.90;99.90;;;;;;5155043;27;20015;-66
2021/10/30 00:08:21;;;;;;;2.83;1.80;;;5.00;99.90;;;;;;5156553;27;20022;-66
2021/10/30 00:10:47;;;;;;;2.08;1.88;;;5.00;99.90;;;;;;5156233;27;20456;-66
2021/10/30 00:13:13;;;;;;;2.15;1.70;;;5.00;99.90;;;;;;5156311;27;20022;-66
2021/10/30 00:15:40;;;;;;;2.95;1.55;;;5.00;99.90;;;;;;5156019;27;20027;-67
2021/10/30 00:18:06;;;;;;;2.22;1.60;;;5.00;99.90;;;;;;5156310;27;20026;-67
2021/10/30 00:20:33;;;;;;;2.33;1.90;;;5.00;99.90;;;;;;5155810;27;20030;-67
2021/10/30 00:22:59;;;;;;;1.70;1.60;;;5.00;99.90;;;;;;5156158;27;20113;-67
2021/10/30 00:25:25;;;;;;;2.38;1.85;;;5.10;99.90;;;;;;5155742;27;20098;-65
2021/10/30 00:27:50;;;;;;;1.92;1.60;;;5.00;99.90;;;;;;5155816;27;20033;-66
2021/10/30 00:30:16;;;;;;;3.38;1.35;;;5.10;99.90;;;;;;5155762;27;20019;-67
2021/10/30 00:32:42;;;;;;;3.67;1.60;;;5.10;99.90;;;;;;5155910;27;20026;-67
2021/10/30 00:35:09;;;;;;;3.22;2.15;;;5.10;99.90;;;;;;5155964;27;20102;-67
2021/10/30 00:37:34;;;;;;;3.38;2.13;;;5.10;99.90;;;;;;5155438;27;20041;-66
2021/10/30 00:40:00;;;;;;;4.57;2.20;;;5.10;99.90;;;;;;5155835;27;20049;-67
2021/10/30 00:42:26;;;;;;;3.08;2.35;;;5.10;99.90;;;;;;5155555;27;20090;-67
2021/10/30 00:44:52;;;;;;;3.92;2.20;;;5.10;99.90;;;;;;5155714;27;20113;-67
2021/10/30 00:47:17;;;;;;;3.20;2.13;;;5.10;99.90;;;;;;5155774;27;20077;-67
2021/10/30 00:49:44;;;;;;;2.70;2.17;;;5.10;99.90;;;;;;5155188;27;20088;-66
2021/10/30 00:52:12;;;;;;;3.78;2.50;;;5.10;99.90;;;;;;5155365;27;20027;-66
2021/10/30 00:54:40;;;;;;;3.42;2.28;;;5.10;99.90;;;;;;5155428;27;20027;-66
2021/10/30 00:57:07;;;;;;;3.25;2.47;;;5.10;99.90;;;;;;5155165;27;20054;-66
2021/10/30 00:59:34;;;;;;;3.10;2.33;;;5.10;99.90;;;;;;5154885;27;20490;-66
2021/10/30 01:01:59;;;;;;;2.28;2.08;;;5.10;99.90;;;;;;5155086;27;20033;-66
2021/10/30 01:04:25;;;;;;;2.42;2.08;;;5.10;99.90;;;;;;5154933;27;20022;-66
2021/10/30 01:06:53;;;;;;;3.40;2.38;;;5.10;99.90;;;;;;5155077;27;20015;-66
2021/10/30 01:09:20;;;;;;;3.20;2.15;;;5.10;99.90;;;;;;5155049;27;20121;-66
2021/10/30 01:11:46;;;;;;;2.67;2.17;;;5.10;99.90;;;;;;5154842;27;20030;-66
2021/10/30 01:14:13;;;;;;;2.72;2.15;;;5.10;99.90;;;;;;5155214;27;20022;-66
2021/10/30 01:16:39;;;;;;;3.35;1.85;;;5.10;99.90;;;;;;5155058;27;20083;-66
2021/10/30 01:19:05;;;;;;;2.20;1.70;;;5.10;99.90;;;;;;5154868;27;20435;-66
2021/10/30 01:21:33;;;;;;;2.40;1.80;;;5.20;99.90;;;;;;5154738;27;20015;-66
2021/10/30 01:24:00;;;;;;;2.00;1.77;;;5.20;99.90;;;;;;5154751;27;20031;-66
2021/10/30 01:26:26;;;;;;;2.38;1.92;;;5.20;99.90;;;;;;5154947;27;20025;-66
2021/10/30 01:28:53;;;;;;;3.03;2.00;;;5.20;99.90;;;;;;5154799;27;20063;-66
2021/10/30 01:31:21;;;;;;;1.63;1.52;;;5.20;99.90;;;;;;5154952;27;20030;-66
2021/10/30 01:33:48;;;;;;;2.70;2.00;;;5.20;99.90;;;;;;5154475;27;20030;-66
2021/10/30 01:36:16;;;;;;;2.35;2.00;;;5.20;99.90;;;;;;5154483;27;20079;-66
2021/10/30 01:38:42;;;;;;;4.40;1.70;;;5.20;99.90;;;;;;5154212;27;20118;-66
2021/10/30 01:41:09;;;;;;;2.17;1.80;;;5.20;99.90;;;;;;5154580;27;20029;-66
2021/10/30 01:43:34;;;;;;;1.98;1.45;;;5.20;99.90;;;;;;5154314;27;20027;-66
2021/10/30 01:46:00;;;;;;;4.43;1.52;;;5.20;99.90;;;;;;5153095;27;20071;-67
2021/10/30 01:48:33;;;;;;;3.97;1.50;;;5.20;99.90;;;;;;5154525;27;20023;-67
2021/10/30 01:51:00;;;;;;;1.40;1.30;;;5.20;99.90;;;;;;5154443;27;20026;-67
2021/10/30 01:53:25;;;;;;;1.63;1.50;;;5.20;99.90;;;;;;5154164;27;20029;-67
2021/10/30 01:55:52;;;;;;;1.92;1.40;;;5.20;99.90;;;;;;5154156;27;20482;-67
2021/10/30 01:58:18;;;;;;;3.55;1.45;;;5.20;99.90;;;;;;5153917;27;20087;-66
2021/10/30 02:00:47;;;;;;;2.88;1.50;;;5.20;99.90;;;;;;5153384;27;20027;-67
2021/10/30 02:03:13;;;;;;;2.28;1.67;;;5.20;99.90;;;;;;5154118;27;20118;-67
2021/10/30 02:05:39;;;;;;;2.28;1.77;;;5.20;99.90;;;;;;5153861;27;20109;-67
2021/10/30 02:08:05;;;;;;;1.80;1.40;;;5.20;99.90;;;;;;5154033;27;20027;-67
2021/10/30 02:10:31;;;;;;;1.88;1.50;;;5.20;99.90;;;;;;5154088;27;20019;-67
2021/10/30 02:12:56;;;;;;;1.48;1.30;;;5.20;99.90;;;;;;5154003;27;20026;-67
2021/10/30 02:15:22;;;;;;;2.33;1.42;;;5.20;99.90;;;;;;5154131;27;20019;-67
2021/10/30 02:17:48;;;;;;;2.00;1.70;;;5.20;99.90;;;;;;5153716;27;20034;-67
2021/10/30 02:20:14;;;;;;;1.20;1.10;;;5.20;99.90;;;;;;5153762;27;20023;-67
2021/10/30 02:22:40;;;;;;;1.50;1.40;;;5.20;99.90;;;;;;5153687;27;20023;-67
2021/10/30 02:54:10;;;;;;;1.15;1.02;;;5.20;99.90;;;;;;5153574;27;20039;-66
2021/10/30 02:56:36;;;;;;;1.50;1.40;;;5.20;99.90;;;;;;5153784;27;20026;-66
2021/10/30 02:59:02;;;;;;;5.40;1.92;;;5.20;99.90;;;;;;5153269;27;20038;-66
2021/10/30 03:01:28;;;;;;;4.78;1.63;;;5.20;99.90;;;;;;5153422;27;20106;-66
2021/10/30 03:03:53;;;;;;;3.83;1.70;;;5.20;99.90;;;;;;5153385;27;20175;-65
2021/10/30 03:06:22;;;;;;;4.65;1.75;;;5.20;99.90;;;;;;5153203;27;20026;-66
2021/10/30 03:08:49;;;;;;;8.55;2.70;;;5.20;99.90;;;;;;5153346;27;20508;-65
2021/10/30 03:11:17;;;;;;;17.08;2.50;;;5.20;99.90;;;;;;5153074;27;20031;-64
2021/10/30 03:13:43;;;;;;;9.40;3.45;;;5.20;99.90;;;;;;5156799;27;20443;-64
2021/10/30 03:16:09;;;;;;;12.43;3.08;;;5.10;99.90;;;;;;5157189;27;20023;-64
2021/10/30 03:18:34;;;;;;;9.95;3.45;;;5.10;99.90;;;;;;5156974;27;20037;-64
2021/10/30 03:21:00;;;;;;;17.95;3.88;;;5.20;99.90;;;;;;5157105;27;20023;-64
2021/10/30 03:23:26;;;;;;;14.85;3.65;;;5.20;99.90;;;;;;5156872;27;20075;-64
2021/10/30 03:25:51;;;;;;;14.20;2.92;;;5.20;99.90;;;;;;5156993;27;20109;-65
2021/10/30 03:28:17;;;;;;;12.77;3.28;;;5.20;99.90;;;;;;5157177;27;20019;-66
2021/10/30 03:30:43;;;;;;;12.23;3.10;;;5.20;99.90;;;;;;5156932;27;20018;-66
2021/10/30 03:33:12;;;;;;;8.70;2.53;;;5.20;99.90;;;;;;5157005;27;20026;-66
2021/10/30 03:35:38;;;;;;;10.43;3.20;;;5.20;99.90;;;;;;5156910;27;20054;-66
2021/10/30 03:38:04;;;;;;;6.78;2.10;;;5.10;99.90;;;;;;5156834;27;20030;-66
2021/10/30 03:40:30;;;;;;;10.40;1.85;;;5.10;99.90;;;;;;5156623;27;20026;-66
2021/10/30 03:42:56;;;;;;;10.40;2.33;;;5.10;99.90;;;;;;5156861;27;20375;-66
2021/10/30 03:45:22;;;;;;;7.28;2.20;;;5.10;99.90;;;;;;5156595;27;20019;-65
2021/10/30 03:47:48;;;;;;;23.95;2.92;;;5.10;99.90;;;;;;5156731;27;20377;-65
2021/10/30 03:50:14;;;;;;;18.13;2.67;;;5.10;99.90;;;;;;5156543;27;20023;-65
2021/10/30 03:52:40;;;;;;;13.50;2.78;;;5.10;99.90;;;;;;5156645;27;20489;-65
2021/10/30 03:55:07;;;;;;;30.17;2.53;;;5.10;99.90;;;;;;5156474;27;20023;-65
2021/10/30 03:57:32;;;;;;;26.63;3.38;;;5.10;99.90;;;;;;5156543;27;20051;-65
2021/10/30 03:59:58;;;;;;;31.90;3.03;;;5.10;99.90;;;;;;5156269;27;20233;-65
2021/10/30 04:02:24;;;;;;;29.02;3.05;;;5.20;99.90;;;;;;5156370;27;20099;-65
2021/10/30 04:04:50;;;;;;;28.75;2.72;;;5.20;99.90;;;;;;5156446;27;20027;-65
2021/10/30 04:07:16;;;;;;;36.33;3.20;;;5.10;99.90;;;;;;5156201;27;20454;-65
2021/10/30 04:09:41;;;;;;;28.83;2.58;;;5.20;99.90;;;;;;5156614;27;20015;-65
2021/10/30 04:12:08;;;;;;;27.85;3.10;;;5.10;99.90;;;;;;5156300;27;20402;-65
2021/10/30 04:14:34;;;;;;;21.63;2.97;;;5.10;99.90;;;;;;5156390;27;20019;-65
2021/10/30 04:16:59;;;;;;;29.38;3.75;;;5.20;99.90;;;;;;5156092;27;20113;-65
2021/10/30 04:19:25;;;;;;;31.73;2.95;;;5.20;99.90;;;;;;5155921;27;20629;-65
2021/10/30 04:21:51;;;;;;;18.42;2.92;;;5.10;99.90;;;;;;5155974;27;20023;-65
2021/10/30 04:24:16;;;;;;;26.02;3.53;;;5.20;99.90;;;;;;5155465;27;20117;-65
2021/10/30 04:26:42;;;;;;;28.60;3.95;;;5.20;99.90;;;;;;5155909;27;20019;-65
2021/10/30 04:29:08;;;;;;;41.65;4.20;;;5.20;99.90;;;;;;5154644;27;20492;-65
2021/10/30 04:31:34;;;;;;;59.25;4.40;;;5.20;99.90;;;;;;5155853;27;20026;-65
2021/10/30 04:34:03;;;;;;;44.08;3.80;;;5.20;99.90;;;;;;5155765;27;20023;-65
2021/10/30 04:36:30;;;;;;;59.20;3.55;;;5.20;99.90;;;;;;5154392;27;20034;-64
2021/10/30 04:38:57;;;;;;;26.48;2.92;;;5.20;99.90;;;;;;5155603;27;20118;-67
2021/10/30 04:41:24;;;;;;;3.92;1.30;;;5.20;99.90;;;;;;5155372;27;20019;-66
2021/10/30 04:43:50;;;;;;;48.05;3.13;;;6.90;99.90;;;;;;5144340;27;20105;-68
2021/10/30 04:46:20;;;;;;;34.95;3.25;;;7.60;99.90;;;;;;5134359;27;20141;-67
2021/10/30 04:48:46;;;;;;;28.00;2.50;;;7.20;99.90;;;;;;5146764;27;20038;-67
2021/10/30 04:51:12;;;;;;;30.63;2.78;;;6.80;99.90;;;;;;5147201;27;20099;-67
2021/10/30 04:53:41;;;;;;;56.05;3.28;;;6.50;99.90;;;;;;5137322;27;20500;-66
2021/10/30 04:56:08;;;;;;;26.05;3.00;;;6.10;99.90;;;;;;5137727;27;20015;-66
2021/10/30 04:58:34;;;;;;;38.92;3.28;;;6.00;99.90;;;;;;5140702;27;20485;-66
2021/10/30 05:01:01;;;;;;;29.13;3.28;;;6.00;99.90;;;;;;5153816;27;20044;-66
2021/10/30 05:03:27;;;;;;;45.60;3.20;;;6.10;99.90;;;;;;5145971;27;20023;-66
2021/10/30 05:05:54;;;;;;;46.63;3.38;;;6.00;99.90;;;;;;5142558;27;20072;-66
2021/10/30 05:08:21;;;;;;;27.00;3.78;;;5.90;99.90;;;;;;5146184;27;20022;-66
2021/10/30 05:10:46;;;;;;;37.72;3.88;;;5.70;99.90;;;;;;5149702;27;20026;-67
2021/10/30 05:13:12;;;;;;;30.17;3.45;;;5.70;99.90;;;;;;5144210;27;20405;-67
2021/10/30 05:15:38;;;;;;;61.08;3.92;;;5.60;99.90;;;;;;5144765;27;20019;-66
2021/10/30 05:18:04;;;;;;;26.10;3.25;;;5.70;99.90;;;;;;5142802;27;20034;-66
2021/10/30 05:20:30;;;;;;;40.08;4.28;;;5.70;99.90;;;;;;5144478;27;20019;-66
2021/10/30 05:22:55;;;;;;;44.80;3.45;;;5.60;99.90;;;;;;5144396;27;20088;-66
2021/10/30 05:25:24;;;;;;;57.28;4.05;;;5.60;99.90;;;;;;5134356;27;20030;-66
2021/10/30 05:27:51;;;;;;;58.33;4.00;;;5.50;99.90;;;;;;5134102;27;20420;-66
2021/10/30 05:30:16;;;;;;;26.98;3.97;;;5.50;99.90;;;;;;5134028;27;20368;-66
2021/10/30 05:32:42;;;;;;;43.28;4.10;;;5.60;99.90;;;;;;5133853;27;20121;-66
2021/10/30 05:35:08;;;;;;;27.95;3.75;;;5.60;99.90;;;;;;5133200;27;20463;-66
2021/10/30 05:37:34;;;;;;;38.17;4.05;;;5.50;99.90;;;;;;5133574;27;20034;-66
2021/10/30 05:40:01;;;;;;;37.92;3.72;;;5.40;99.90;;;;;;5134072;27;20027;-66
2021/10/30 05:42:26;;;;;;;29.50;3.15;;;5.40;99.90;;;;;;5132247;27;20019;-66
2021/10/30 05:44:52;;;;;;;30.05;3.85;;;5.40;99.90;;;;;;5133965;27;20168;-66
2021/10/30 05:47:18;;;;;;;44.10;4.13;;;5.30;99.90;;;;;;5133640;27;20398;-66
2021/10/30 05:49:44;;;;;;;37.58;4.13;;;5.40;99.90;;;;;;5133561;27;20019;-67
2021/10/30 05:52:11;;;;;;;50.25;4.13;;;5.40;99.90;;;;;;5133571;27;20015;-68
2021/10/30 05:54:38;;;;;;;37.33;4.03;;;5.40;99.90;;;;;;5133461;27;20467;-68
2021/10/30 05:57:08;;;;;;;39.08;4.35;;;5.50;99.90;;;;;;5133457;27;20034;-67
2021/10/30 05:59:34;;;;;;;36.97;3.83;;;5.50;99.90;;;;;;5128724;27;20077;-66
2021/10/30 06:01:59;;;;;;;25.45;3.42;;;5.40;99.90;;;;;;5133026;27;20479;-72
2021/10/30 06:04:25;;;;;;;41.50;3.70;;;5.40;99.90;;;;;;5133169;27;20147;-72
2021/10/30 06:06:51;;;;;;;37.78;3.95;;;5.40;99.90;;;;;;5131877;27;20019;-71
2021/10/30 06:09:18;;;;;;;27.85;3.42;;;5.50;99.90;;;;;;5133258;27;20106;-71
2021/10/30 06:11:43;;;;;;;54.55;4.47;;;5.50;99.90;;;;;;5132765;27;20015;-70
2021/10/30 06:14:10;;;;;;;48.42;4.68;;;5.50;99.90;;;;;;5133346;27;20532;-72
2021/10/30 06:16:36;;;;;;;43.03;4.13;;;5.50;99.90;;;;;;5132869;27;20095;-70
2021/10/30 06:19:03;;;;;;;54.40;4.30;;;5.50;99.90;;;;;;5132935;27;20042;-70
2021/10/30 06:21:29;;;;;;;43.70;4.38;;;5.50;99.90;;;;;;5132874;27;20146;-70
2021/10/30 06:23:59;;;;;;;27.58;4.85;;;5.50;99.90;;;;;;5132780;27;20035;-68
2021/10/30 06:26:26;;;;;;;35.25;3.50;;;5.50;99.90;;;;;;5132964;27;20027;-67
2021/10/30 06:28:52;;;;;;;26.60;3.78;;;5.50;99.90;;;;;;5131253;27;20022;-67
2021/10/30 06:31:17;;;;;;;65.45;4.43;;;5.40;99.90;;;;;;5124613;27;20031;-67
2021/10/30 06:33:43;;;;;;;65.75;3.78;;;5.40;99.90;;;;;;5130044;27;20031;-67
2021/10/30 06:36:09;;;;;;;70.38;4.20;;;5.40;99.90;;;;;;5131738;28;20031;-70
2021/10/30 06:38:35;;;;;;;68.53;4.43;;;5.40;99.90;;;;;;5132182;28;20034;-70
2021/10/30 06:41:05;;;;;;;72.47;4.65;;;5.40;99.90;;;;;;5132683;27;20019;-68
2021/10/30 06:43:31;;;;;;;72.60;4.35;;;5.40;99.90;;;;;;5132137;28;20042;-67
2021/10/30 06:45:56;;;;;;;30.38;3.63;;;5.50;99.90;;;;;;5138191;27;20015;-67
2021/10/30 06:48:24;;;;;;;62.75;4.35;;;5.40;99.90;;;;;;5135623;27;20023;-68
2021/10/30 06:50:50;;;;;;;40.50;3.50;;;5.50;99.90;;;;;;5115377;28;20031;-67
2021/10/30 06:53:15;;;;;;;44.38;4.32;;;5.70;99.90;;;;;;5131963;27;20023;-67
2021/10/30 06:55:42;;;;;;;71.03;4.35;;;5.90;99.90;;;;;;5136318;27;20025;-67
2021/10/30 06:58:08;;;;;;;48.22;4.40;;;5.80;99.90;;;;;;5142688;27;20141;-67
2021/10/30 07:00:33;;;;;;;73.95;5.18;;;5.70;99.90;;;;;;5137581;27;20562;-66
2021/10/30 07:02:59;;;;;;;56.67;4.05;;;5.60;99.90;;;;;;5136389;27;20039;-66
2021/10/30 07:05:25;;;;;;;22.02;4.18;;;5.60;99.90;;;;;;5136500;27;20027;-66
2021/10/30 07:07:51;;;;;;;29.95;4.18;;;5.50;99.90;;;;;;5136505;27;20025;-65
2021/10/30 07:10:18;;;;;;;32.80;4.60;;;5.50;99.90;;;;;;5136225;27;20027;-65
2021/10/30 07:12:44;;;;;;;25.60;4.75;;;5.50;99.90;;;;;;5135974;27;20044;-65
2021/10/30 07:15:12;;;;;;;17.27;4.05;;;5.50;99.90;;;;;;5136165;27;20035;-65
2021/10/30 07:17:39;;;;;;;33.25;4.40;;;5.50;99.90;;;;;;5135852;27;20035;-65
2021/10/30 07:20:07;;;;;;;45.60;5.35;;;5.50;99.90;;;;;;5136121;27;20019;-64
2021/10/30 07:22:43;;;;;;;26.25;4.40;;;5.50;99.90;;;;;;5135330;27;20035;-64
2021/10/30 07:25:10;;;;;;;25.48;4.38;;;5.50;99.90;;;;;;5135985;27;20794;-64
2021/10/30 07:27:35;;;;;;;16.02;4.80;;;5.50;99.90;;;;;;5135708;27;20073;-64
2021/10/30 07:30:01;;;;;;;23.92;5.50;;;5.50;99.90;;;;;;5144843;27;20061;-65
2021/10/30 07:32:27;;;;;;;19.25;5.38;;;5.40;99.90;;;;;;5143806;27;20071;-66
2021/10/30 07:34:53;;;;;;;21.00;4.57;;;5.50;99.90;;;;;;5146917;27;20022;-69
2021/10/30 07:37:19;;;;;;;12.38;3.60;;;5.60;99.90;;;;;;5139137;27;20015;-69
2021/10/30 07:39:45;;;;;;;13.38;4.10;;;6.30;99.90;;;;;;5134634;27;20061;-69
2021/10/30 07:42:11;;;;;;;15.32;3.53;;;7.00;99.90;;;;;;5128396;27;20026;-69
2021/10/30 07:44:38;;;;;;;8.07;3.83;;;7.40;99.90;;;;;;5135062;27;20015;-69
2021/10/30 07:47:05;;;;;;;9.93;4.13;;;7.80;99.90;;;;;;5146328;27;20050;-69
2021/10/30 07:49:31;;;;;;;10.68;4.70;;;8.00;99.90;;;;;;5134919;27;20030;-69
2021/10/30 07:51:57;;;;;;;12.68;4.78;;;8.20;99.90;;;;;;5143085;27;20097;-69
2021/10/30 07:54:23;;;;;;;7.22;3.83;;;8.30;99.90;;;;;;5138487;27;20160;-69
2021/10/30 07:56:49;;;;;;;16.38;4.75;;;8.50;99.90;;;;;;5135145;27;20177;-64
2021/10/30 07:59:15;;;;;;;13.27;5.07;;;8.50;99.90;;;;;;5134032;27;20058;-64
2021/10/30 08:01:40;;;;;;;11.50;5.00;;;8.20;99.90;;;;;;5134605;27;20474;-64
2021/10/30 08:04:06;;;;;;;6.65;4.10;;;7.90;99.90;;;;;;5135101;27;20019;-64
2021/10/30 08:06:32;;;;;;;9.70;5.13;;;7.60;99.90;;;;;;5139345;27;20471;-63
2021/10/30 08:08:58;;;;;;;9.25;5.90;;;7.50;99.90;;;;;;5138676;27;20478;-63
2021/10/30 08:11:24;;;;;;;7.65;4.63;;;7.40;99.90;;;;;;5135420;27;20019;-63
2021/10/30 08:13:49;;;;;;;7.65;4.93;;;7.20;99.90;;;;;;5135709;27;20465;-63
2021/10/30 08:16:15;;;;;;;8.93;5.25;;;7.10;99.90;;;;;;5135600;27;20024;-63
2021/10/30 08:18:41;;;;;;;7.60;5.20;;;7.20;99.90;;;;;;5140538;27;20079;-63
2021/10/30 08:21:07;;;;;;;8.52;5.85;;;7.20;99.90;;;;;;5149691;27;20019;-64
2021/10/30 08:23:32;;;;;;;6.35;3.40;;;7.10;99.90;;;;;;5135011;27;20080;-68
2021/10/30 08:25:58;;;;;;;9.88;5.82;;;7.30;99.90;;;;;;5135193;27;20062;-65
2021/10/30 08:28:24;;;;;;;9.88;5.65;;;7.70;99.90;;;;;;5135013;27;20027;-65
2021/10/30 08:30:50;;;;;;;10.45;5.80;;;7.60;99.90;;;;;;5135306;27;20027;-64
2021/10/30 08:33:15;;;;;;;10.57;6.20;;;7.30;99.90;;;;;;5135064;27;20449;-63
2021/10/30 08:35:41;;;;;;;11.68;6.10;;;7.10;99.90;;;;;;5135003;27;20034;-63
2021/10/30 08:38:09;;;;;;;10.68;6.35;;;6.90;99.90;;;;;;5134789;27;20031;-63
2021/10/30 08:40:37;;;;;;;10.02;5.80;;;6.80;99.90;;;;;;5140602;27;20023;-63
2021/10/30 08:43:03;;;;;;;7.97;5.70;;;6.80;99.90;;;;;;5134869;27;20023;-63
2021/10/30 08:45:32;;;;;;;12.35;6.72;;;6.70;99.90;;;;;;5134643;27;20019;-63
2021/10/30 08:48:02;;;;;;;11.23;6.93;;;6.70;99.90;;;;;;5141162;27;20031;-63
2021/10/30 08:50:29;;;;;;;12.63;6.72;;;6.60;99.90;;;;;;5155330;27;20027;-63
2021/10/30 08:52:55;;;;;;;11.02;6.88;;;6.60;99.90;;;;;;5155283;27;20054;-63
2021/10/30 08:55:20;;;;;;;12.82;6.90;;;6.60;99.90;;;;;;5155289;27;20050;-63
2021/10/30 08:57:46;;;;;;;13.68;7.53;;;6.60;99.90;;;;;;5154947;27;20030;-63
2021/10/30 09:00:23;;;;;;;10.52;6.88;;;7.00;99.90;;;;;;5152901;27;20050;-64
2021/10/30 09:03:01;;;;;;;12.38;7.43;;;7.60;99.90;;;;;;5147316;27;20031;-65
2021/10/30 09:05:28;;;;;;;10.10;6.97;;;7.60;99.90;;;;;;5149018;27;20030;-65
2021/10/30 09:07:56;;;;;;;10.27;6.57;;;7.40;99.90;;;;;;5150338;27;20069;-65
2021/10/30 09:10:28;;;;;;;9.52;6.93;;;7.20;99.90;;;;;;5148050;27;20011;-65
2021/10/30 09:12:55;;;;;;;10.90;7.57;;;7.10;99.90;;;;;;5131209;27;20046;-65
2021/10/30 09:15:36;;;;;;;11.95;7.15;;;7.10;99.90;;;;;;5135216;27;20015;-65
2021/10/30 09:18:17;;;;;;;10.48;7.68;;;7.00;99.90;;;;;;5141517;27;20050;-65
2021/10/30 09:20:47;;;;;;;9.27;7.32;;;7.00;99.90;;;;;;5145179;27;20071;-66
2021/10/30 09:23:14;;;;;;;12.18;7.63;;;7.00;99.90;;;;;;5133832;27;20030;-65
2021/10/30 09:25:55;;;;;;;10.50;7.38;;;7.00;99.90;;;;;;5147234;27;20027;-66
2021/10/30 09:28:25;;;;;;;12.30;7.88;;;7.00;99.90;;;;;;5140030;27;20023;-65
2021/10/30 09:30:58;;;;;;;;;;;7.00;99.90;;;;;;5141534;27;20022;-65
2021/10/30 09:33:25;;;;;;;12.52;8.68;;;7.00;99.90;;;;;;5140756;27;20308;-65
2021/10/30 09:35:51;;;;;;;11.70;8.88;;;7.00;99.90;;;;;;5143670;27;20473;-65
2021/10/30 09:38:35;;;;;;;11.13;8.43;;;7.00;99.90;;;;;;5144752;27;20035;-66
2021/10/30 09:41:03;;;;;;;15.23;9.55;;;7.00;99.90;;;;;;5143231;27;20542;-66
2021/10/30 09:43:29;;;;;;;14.38;8.80;;;7.00;99.90;;;;;;5139141;27;20023;-66
2021/10/30 09:46:06;;;;;;;13.70;8.85;;;7.00;99.90;;;;;;5133733;27;20543;-65
2021/10/30 09:48:33;;;;;;;11.77;9.13;;;7.10;99.90;;;;;;5133862;27;20047;-66
2021/10/30 09:51:02;;;;;;;12.65;9.45;;;7.10;99.90;;;;;;5134697;27;20097;-66
2021/10/30 09:53:40;;;;;;;14.18;9.43;;;7.10;99.90;;;;;;5147023;27;20019;-66
2021/10/30 09:56:07;;;;;;;12.18;8.90;;;7.10;99.90;;;;;;5140068;27;20052;-66
2021/10/30 09:58:38;;;;;;;14.07;9.55;;;7.10;99.90;;;;;;5141255;27;20047;-66
2021/10/30 10:01:09;;;;;;;14.73;9.68;;;7.10;99.90;;;;;;5146530;27;20019;-67
2021/10/30 10:03:36;;;;;;;11.98;8.88;;;7.20;99.90;;;;;;5141712;27;20367;-66
2021/10/30 10:06:06;;;;;;;13.18;9.25;;;7.20;99.90;;;;;;5139119;27;20023;-68
2021/10/30 10:08:40;;;;;;;11.80;8.68;;;7.20;99.90;;;;;;5149800;27;20019;-68
2021/10/30 10:11:11;;;;;;;11.32;9.07;;;7.20;99.90;;;;;;5139355;27;20034;-66
2021/10/30 10:13:39;;;;;;;10.82;8.52;;;7.30;99.90;;;;;;5139666;27;20138;-66
2021/10/30 10:16:13;;;;;;;11.18;8.57;;;7.30;99.90;;;;;;5126595;27;20097;-66
2021/10/30 10:18:39;;;;;;;11.32;8.82;;;7.30;99.90;;;;;;5140847;27;20028;-66
2021/10/30 10:21:07;;;;;;;11.07;8.45;;;7.30;99.90;;;;;;5141961;27;20031;-66
2021/10/30 10:23:33;;;;;;;13.05;9.07;;;7.30;99.90;;;;;;5137844;27;20417;-66
2021/10/30 10:25:59;;;;;;;14.00;9.90;;;7.30;99.90;;;;;;5133072;27;20080;-66
2021/10/30 10:28:34;;;;;;;11.73;9.43;;;7.30;99.90;;;;;;5132927;27;20467;-66
2021/10/30 10:31:12;;;;;;;13.77;9.73;;;7.30;99.90;;;;;;5132976;27;20543;-66
2021/10/30 10:33:39;;;;;;;12.55;9.35;;;7.30;99.90;;;;;;5132901;27;20031;-66
2021/10/30 10:36:14;;;;;;;16.00;9.45;;;7.30;99.90;;;;;;5132986;28;20390;-66
2021/10/30 10:38:57;;;;;;;14.70;10.38;;;7.30;99.90;;;;;;5132960;28;20096;-66
2021/10/30 10:41:42;;;;;;;14.68;10.05;;;7.20;99.90;;;;;;5132975;28;20019;-65
2021/10/30 10:44:09;;;;;;;16.88;11.05;;;7.30;99.90;;;;;;5132987;28;20023;-65
2021/10/30 10:46:48;;;;;;;14.85;10.80;;;7.20;99.90;;;;;;5132755;28;20027;-66
2021/10/30 10:49:31;;;;;;;15.48;10.90;;;7.30;99.90;;;;;;5133086;28;20394;-66
2021/10/30 10:52:18;;;;;;;13.93;10.10;;;7.30;99.90;;;;;;5132920;28;20076;-65
2021/10/30 10:54:55;;;;;;;14.63;10.20;;;7.30;99.90;;;;;;5132756;27;20019;-65
2021/10/30 10:57:32;;;;;;;17.30;11.15;;;7.30;99.90;;;;;;5132317;28;20030;-65
2021/10/30 11:00:08;;;;;;;17.65;11.80;;;7.40;99.90;;;;;;5132361;27;20043;-65
2021/10/30 11:02:38;;;;;;;16.88;11.65;;;7.40;99.90;;;;;;5132606;28;20023;-65
2021/10/30 11:05:10;;;;;;;18.25;11.85;;;7.40;99.90;;;;;;5132757;28;20059;-65
2021/10/30 11:07:36;;;;;;;19.05;11.38;;;7.50;99.90;;;;;;5132462;28;20039;-65
2021/10/30 11:10:08;;;;;;;20.60;12.32;;;7.50;99.90;;;;;;5132630;28;20451;-65
2021/10/30 11:12:34;;;;;;;20.08;11.77;;;7.50;99.90;;;;;;5132370;28;20076;-68
2021/10/30 11:15:11;;;;;;;15.07;10.20;;;7.50;99.90;;;;;;5132175;28;20027;-67
2021/10/30 11:18:04;;;;;;;17.33;11.60;;;7.90;99.90;;;;;;5132414;28;20041;-66
2021/10/30 11:20:38;;;;;;;12.85;9.18;;;8.40;99.90;;;;;;5132541;28;20386;-67
2021/10/30 11:23:08;;;;;;;13.52;10.15;;;8.60;99.90;;;;;;5132741;28;20019;-67
2021/10/30 11:25:34;;;;;;;4.25;3.20;;;8.90;99.90;;;;;;5132743;28;20043;-71
2021/10/30 11:28:00;;;;;;;13.13;9.90;;;9.10;99.90;;;;;;5132801;28;20390;-67
2021/10/30 11:30:40;;;;;;;12.35;9.43;;;10.00;99.90;;;;;;5132493;28;20023;-66
2021/10/30 11:33:28;;;;;;;14.48;9.73;;;9.90;99.90;;;;;;5133512;27;20023;-67
2021/10/30 11:36:05;;;;;;;11.68;8.95;;;9.90;99.90;;;;;;5137069;27;20042;-67
2021/10/30 11:38:34;;;;;;;11.38;9.45;;;9.90;99.90;;;;;;5136080;27;20035;-67
2021/10/30 11:41:08;;;;;;;16.75;10.88;;;10.00;99.90;;;;;;5136422;27;20027;-68
2021/10/30 11:43:36;;;;;;;15.00;9.80;;;9.90;99.90;;;;;;5138553;27;20050;-68
2021/10/30 11:46:06;;;;;;;14.50;9.60;;;9.90;99.90;;;;;;5141502;27;20023;-69
2021/10/30 11:48:49;;;;;;;16.38;11.18;;;9.90;99.90;;;;;;5136288;27;20030;-67
2021/10/30 11:51:20;;;;;;;13.98;10.05;;;9.80;99.90;;;;;;5132102;27;20041;-67
2021/10/30 11:53:48;;;;;;;25.10;11.05;;;9.50;99.90;;;;;;5135547;27;20019;-67
2021/10/30 11:56:16;;;;;;;15.75;10.93;;;9.30;99.90;;;;;;5135432;27;20102;-67
2021/10/30 11:58:41;;;;;;;15.55;10.40;;;9.20;99.90;;;;;;5134537;27;20047;-67
2021/10/30 12:01:29;;;;;;;14.20;10.13;;;9.00;99.90;;;;;;5133804;27;20103;-67
2021/10/30 12:04:20;;;;;;;16.48;10.85;;;8.90;99.90;;;;;;5135051;27;20027;-67
2021/10/30 12:06:55;;;;;;;18.25;11.13;;;8.80;99.90;;;;;;5119487;27;20480;-67
2021/10/30 12:09:37;;;;;;;15.57;11.57;;;8.70;99.90;;;;;;5135061;27;20035;-67
2021/10/30 12:12:23;;;;;;;16.92;10.75;;;8.60;99.90;;;;;;5133393;27;20569;-67
2021/10/30 12:14:54;;;;;;;15.27;11.13;;;8.60;99.90;;;;;;5135061;27;20020;-68
2021/10/30 12:17:26;;;;;;;15.15;11.13;;;8.60;99.90;;;;;;5135148;27;20027;-68
2021/10/30 12:20:05;;;;;;;17.58;12.20;;;8.60;99.90;;;;;;5134899;27;20054;-67
2021/10/30 12:22:39;;;;;;;18.27;12.40;;;8.60;99.90;;;;;;5121175;27;20032;-67
2021/10/30 12:25:10;;;;;;;18.00;12.55;;;8.50;99.90;;;;;;5113026;28;20479;-67
2021/10/30 12:27:39;;;;;;;20.80;12.15;;;8.50;99.90;;;;;;5112291;28;20027;-67
2021/10/30 12:30:08;;;;;;;21.27;12.27;;;8.40;99.90;;;;;;5112540;28;20483;-67
2021/10/30 12:32:42;;;;;;;17.48;12.30;;;8.40;99.90;;;;;;5120733;27;20057;-67
2021/10/30 12:35:13;;;;;;;19.15;12.63;;;8.40;99.90;;;;;;5135080;27;20026;-67
2021/10/30 12:37:39;;;;;;;17.35;12.27;;;8.40;99.90;;;;;;5134497;27;20027;-67
2021/10/30 12:40:06;;;;;;;18.17;12.48;;;8.40;99.90;;;;;;5133033;27;20031;-67
2021/10/30 12:42:34;;;;;;;22.52;12.52;;;8.40;99.90;;;;;;5134845;27;20024;-67
2021/10/30 12:44:59;;;;;;;18.80;12.65;;;8.40;99.90;;;;;;5134291;27;20107;-67
2021/10/30 12:47:30;;;;;;;19.35;13.18;;;8.30;99.90;;;;;;5134418;27;20527;-67
2021/10/30 12:50:05;;;;;;;21.05;12.20;;;8.30;99.90;;;;;;5134106;27;20030;-67
2021/10/30 12:52:39;;;;;;;20.50;13.30;;;8.30;99.90;;;;;;5134414;27;20088;-68
2021/10/30 12:55:10;;;;;;;17.77;12.77;;;8.30;99.90;;;;;;5134653;27;20383;-67
2021/10/30 12:57:36;;;;;;;20.65;11.63;;;8.30;99.90;;;;;;5134189;27;20035;-67
2021/10/30 13:00:07;;;;;;;18.00;12.05;;;8.40;99.90;;;;;;5134071;27;20091;-67
2021/10/30 13:02:33;;;;;;;18.83;11.90;;;8.40;99.90;;;;;;5134016;27;20015;-67
2021/10/30 13:05:10;;;;;;;16.90;11.30;;;8.40;99.90;;;;;;5141241;27;20033;-67
2021/10/30 13:07:36;;;;;;;16.25;10.52;;;8.30;99.90;;;;;;5141266;27;20072;-67
2021/10/30 13:10:02;;;;;;;16.30;11.18;;;8.30;99.90;;;;;;5136539;27;20463;-67
2021/10/30 13:12:28;;;;;;;16.15;10.65;;;8.30;99.90;;;;;;5134182;27;20049;-68
2021/10/30 13:14:54;;;;;;;15.60;10.50;;;8.30;99.90;;;;;;5139179;27;20018;-67
2021/10/30 13:17:21;;;;;;;16.50;10.02;;;8.30;99.90;;;;;;5133933;27;20097;-67
2021/10/30 13:19:47;;;;;;;16.73;10.10;;;8.30;99.90;;;;;;5137736;27;20053;-67
2021/10/30 13:22:13;;;;;;;11.70;8.48;;;8.30;99.90;;;;;;5122006;27;20061;-70